sensor_id;sensor_type;location;lat;lon;timestamp;pressure;altitude;pressure_sealevel;temperature;humidity
12468;BME280;57850;52.922;6.256;2022-10-22T00:00:53;98994.22;;;16.38;100.00
12468;BME280;57850;52.922;6.256;2022-10-22T00:03:21;98992.84;;;16.25;100.00
12468;BME280;57850;52.922;6.256;2022-10-22T00:05:47;98952.25;;;16.27;100.00
12468;BME280;57850;52.922;6.256;2022-10-22T00:08:14;98938.81;;;16.30;100.00
12468;BME280;57850;52.922;6.256;2022-10-22T00:10:42;98937.00;;;16.40;100.00
12468;BME280;57850;52.922;6.256;2022-10-22T00:13:10;98953.09;;;16.28;100.00
12468;BME280;57850;52.922;6.256;2022-10-22T00:15:37;98968.16;;;16.35;100.00
12468;BME280;57850;52.922;6.256;2022-10-22T00:18:04;98985.31;;;16.11;100.00
12468;BME280;57850;52.922;6.256;2022-10-22T00:20:30;98982.97;;;16.17;100.00
12468;BME280;57850;52.922;6.256;2022-10-22T00:22:57;98985.63;;;16.36;100.00
12468;BME280;57850;52.922;6.256;2022-10-22T00:25:23;99046.13;;;16.17;100.00
12468;BME280;57850;52.922;6.256;2022-10-22T00:27:51;99043.31;;;15.99;100.00
12468;BME280;57850;52.922;6.256;2022-10-22T00:30:18;98992.50;;;15.99;100.00
12468;BME280;57850;52.922;6.256;2022-10-22T00:32:44;98963.16;;;16.23;100.00
12468;BME280;57850;52.922;6.256;2022-10-22T00:35:11;98983.00;;;16.27;100.00
12468;BME280;57850;52.922;6.256;2022-10-22T00:37:37;98977.31;;;16.22;100.00
12468;BME280;57850;52.922;6.256;2022-10-22T00:40:04;99020.38;;;16.21;100.00
12468;BME280;57850;52.922;6.256;2022-10-22T00:42:31;99031.91;;;16.39;100.00
12468;BME280;57850;52.922;6.256;2022-10-22T00:45:07;99067.38;;;16.35;100.00
12468;BME280;57850;52.922;6.256;2022-10-22T00:47:42;99058.34;;;16.28;100.00
12468;BME280;57850;52.922;6.256;2022-10-22T00:50:12;99037.09;;;16.10;100.00
12468;BME280;57850;52.922;6.256;2022-10-22T00:52:40;98995.84;;;16.20;100.00
12468;BME280;57850;52.922;6.256;2022-10-22T00:55:07;99004.72;;;16.10;100.00
12468;BME280;57850;52.922;6.256;2022-10-22T00:57:34;98999.53;;;15.89;100.00
12468;BME280;57850;52.922;6.256;2022-10-22T01:00:02;98972.94;;;15.82;100.00
12468;BME280;57850;52.922;6.256;2022-10-22T01:02:30;98936.84;;;15.94;100.00
12468;BME280;57850;52.922;6.256;2022-10-22T01:04:57;98905.28;;;15.94;100.00
12468;BME280;57850;52.922;6.256;2022-10-22T01:07:24;98932.66;;;15.82;100.00
12468;BME280;57850;52.922;6.256;2022-10-22T01:09:59;98898.19;;;15.94;100.00
12468;BME280;57850;52.922;6.256;2022-10-22T01:12:35;98926.09;;;15.67;100.00
12468;BME280;57850;52.922;6.256;2022-10-22T01:15:11;98943.75;;;15.95;100.00
12468;BME280;57850;52.922;6.256;2022-10-22T01:17:48;98918.13;;;15.78;100.00
12468;BME280;57850;52.922;6.256;2022-10-22T01:20:33;98918.84;;;15.99;100.00
12468;BME280;57850;52.922;6.256;2022-10-22T01:23:18;98983.88;;;15.78;100.00
12468;BME280;57850;52.922;6.256;2022-10-22T01:25:50;98941.38;;;15.82;100.00
12468;BME280;57850;52.922;6.256;2022-10-22T01:30:55;98883.47;;;15.63;100.00
12468;BME280;57850;52.922;6.256;2022-10-22T01:33:25;98848.50;;;15.82;100.00
12468;BME280;57850;52.922;6.256;2022-10-22T01:35:52;98839.25;;;15.87;100.00
12468;BME280;57850;52.922;6.256;2022-10-22T01:38:22;98891.97;;;15.86;100.00
12468;BME280;57850;52.922;6.256;2022-10-22T01:40:50;98891.09;;;15.76;100.00
12468;BME280;57850;52.922;6.256;2022-10-22T01:43:16;98868.44;;;15.75;100.00
12468;BME280;57850;52.922;6.256;2022-10-22T01:45:46;98855.84;;;15.88;100.00
12468;BME280;57850;52.922;6.256;2022-10-22T01:48:34;98860.38;;;15.76;100.00
12468;BME280;57850;52.922;6.256;2022-10-22T01:53:59;98865.66;;;15.95;100.00
12468;BME280;57850;52.922;6.256;2022-10-22T01:56:33;98880.06;;;15.91;100.00
12468;BME280;57850;52.922;6.256;2022-10-22T01:59:08;98899.19;;;16.03;100.00
12468;BME280;57850;52.922;6.256;2022-10-22T02:01:48;98930.59;;;15.95;100.00
12468;BME280;57850;52.922;6.256;2022-10-22T02:04:24;98905.81;;;16.17;100.00
12468;BME280;57850;52.922;6.256;2022-10-22T02:06:56;98945.44;;;16.05;100.00
12468;BME280;57850;52.922;6.256;2022-10-22T02:09:25;98944.06;;;16.11;100.00
12468;BME280;57850;52.922;6.256;2022-10-22T02:11:54;98944.22;;;16.19;100.00
12468;BME280;57850;52.922;6.256;2022-10-22T02:14:24;98927.13;;;15.75;100.00
12468;BME280;57850;52.922;6.256;2022-10-22T02:16:52;98865.00;;;16.22;100.00
12468;BME280;57850;52.922;6.256;2022-10-22T02:19:25;98914.38;;;15.80;100.00
12468;BME280;57850;52.922;6.256;2022-10-22T02:21:52;98864.56;;;15.98;100.00
12468;BME280;57850;52.922;6.256;2022-10-22T02:24:20;98900.69;;;15.96;100.00
12468;BME280;57850;52.922;6.256;2022-10-22T02:26:51;98905.81;;;16.07;100.00
12468;BME280;57850;52.922;6.256;2022-10-22T02:29:23;98915.81;;;16.13;100.00
12468;BME280;57850;52.922;6.256;2022-10-22T02:31:53;98921.47;;;16.08;100.00
12468;BME280;57850;52.922;6.256;2022-10-22T02:34:27;98893.22;;;16.01;100.00
12468;BME280;57850;52.922;6.256;2022-10-22T02:36:56;98895.28;;;15.78;100.00
12468;BME280;57850;52.922;6.256;2022-10-22T02:39:24;98856.50;;;15.71;100.00
12468;BME280;57850;52.922;6.256;2022-10-22T02:41:51;98858.03;;;15.73;100.00
12468;BME280;57850;52.922;6.256;2022-10-22T02:44:20;98836.59;;;15.87;100.00
12468;BME280;57850;52.922;6.256;2022-10-22T02:46:47;98902.38;;;15.97;100.00
12468;BME280;57850;52.922;6.256;2022-10-22T02:49:14;98886.69;;;15.86;100.00
12468;BME280;57850;52.922;6.256;2022-10-22T02:51:42;98874.94;;;15.80;100.00
12468;BME280;57850;52.922;6.256;2022-10-22T02:54:09;98876.16;;;15.76;100.00
12468;BME280;57850;52.922;6.256;2022-10-22T02:56:35;98863.44;;;15.62;100.00
12468;BME280;57850;52.922;6.256;2022-10-22T02:59:02;98884.75;;;15.69;100.00
12468;BME280;57850;52.922;6.256;2022-10-22T03:01:28;98889.69;;;15.52;100.00
12468;BME280;57850;52.922;6.256;2022-10-22T03:03:55;98847.22;;;15.67;100.00
12468;BME280;57850;52.922;6.256;2022-10-22T03:06:21;98853.31;;;15.67;100.00
12468;BME280;57850;52.922;6.256;2022-10-22T03:08:49;98869.38;;;15.74;100.00
12468;BME280;57850;52.922;6.256;2022-10-22T03:11:16;98927.91;;;15.57;100.00
12468;BME280;57850;52.922;6.256;2022-10-22T03:13:42;98916.19;;;15.80;100.00
12468;BME280;57850;52.922;6.256;2022-10-22T03:16:09;98956.06;;;15.85;100.00
12468;BME280;57850;52.922;6.256;2022-10-22T03:18:35;98920.97;;;15.56;100.00
12468;BME280;57850;52.922;6.256;2022-10-22T03:21:07;98868.66;;;15.52;100.00
12468;BME280;57850;52.922;6.256;2022-10-22T03:23:35;98838.56;;;15.36;100.00
12468;BME280;57850;52.922;6.256;2022-10-22T03:26:04;98777.56;;;15.42;100.00
12468;BME280;57850;52.922;6.256;2022-10-22T03:28:31;98771.47;;;15.41;100.00
12468;BME280;57850;52.922;6.256;2022-10-22T03:30:58;98760.00;;;15.33;100.00
12468;BME280;57850;52.922;6.256;2022-10-22T03:33:24;98726.81;;;15.41;100.00
12468;BME280;57850;52.922;6.256;2022-10-22T03:35:51;98726.81;;;15.41;100.00
12468;BME280;57850;52.922;6.256;2022-10-22T03:38:18;98718.94;;;15.51;100.00
12468;BME280;57850;52.922;6.256;2022-10-22T03:40:45;98713.13;;;15.47;100.00
12468;BME280;57850;52.922;6.256;2022-10-22T03:43:13;98743.88;;;15.57;100.00
12468;BME280;57850;52.922;6.256;2022-10-22T03:45:39;98771.06;;;15.36;100.00
12468;BME280;57850;52.922;6.256;2022-10-22T03:48:06;98752.84;;;15.54;100.00
12468;BME280;57850;52.922;6.256;2022-10-22T03:50:33;98776.03;;;15.20;100.00
12468;BME280;57850;52.922;6.256;2022-10-22T03:52:59;98727.63;;;15.42;100.00
12468;BME280;57850;52.922;6.256;2022-10-22T03:55:26;98759.06;;;15.43;100.00
12468;BME280;57850;52.922;6.256;2022-10-22T03:57:52;98767.50;;;15.37;100.00
12468;BME280;57850;52.922;6.256;2022-10-22T04:00:21;98752.53;;;15.28;100.00
12468;BME280;57850;52.922;6.256;2022-10-22T04:02:47;98742.16;;;15.27;100.00
12468;BME280;57850;52.922;6.256;2022-10-22T04:05:14;98721.56;;;15.41;100.00
12468;BME280;57850;52.922;6.256;2022-10-22T04:07:40;98730.53;;;15.29;100.00
12468;BME280;57850;52.922;6.256;2022-10-22T04:10:07;98708.13;;;15.35;100.00
12468;BME280;57850;52.922;6.256;2022-10-22T04:12:34;98716.00;;;15.35;100.00
12468;BME280;57850;52.922;6.256;2022-10-22T04:15:00;98749.38;;;15.44;100.00
12468;BME280;57850;52.922;6.256;2022-10-22T04:17:33;98751.28;;;15.32;100.00
12468;BME280;57850;52.922;6.256;2022-10-22T04:20:00;98748.53;;;15.24;100.00
12468;BME280;57850;52.922;6.256;2022-10-22T04:22:27;98746.47;;;15.37;100.00
12468;BME280;57850;52.922;6.256;2022-10-22T04:24:54;98781.19;;;15.31;100.00
12468;BME280;57850;52.922;6.256;2022-10-22T04:27:20;98803.84;;;15.42;100.00
12468;BME280;57850;52.922;6.256;2022-10-22T04:29:47;98826.94;;;15.38;100.00
12468;BME280;57850;52.922;6.256;2022-10-22T04:32:13;98824.59;;;15.35;100.00
12468;BME280;57850;52.922;6.256;2022-10-22T04:34:41;98819.00;;;15.49;100.00
12468;BME280;57850;52.922;6.256;2022-10-22T04:37:08;98838.59;;;15.45;100.00
12468;BME280;57850;52.922;6.256;2022-10-22T04:39:34;98823.28;;;15.60;100.00
12468;BME280;57850;52.922;6.256;2022-10-22T04:42:01;98842.31;;;15.43;100.00
12468;BME280;57850;52.922;6.256;2022-10-22T04:44:28;98841.69;;;15.60;100.00
12468;BME280;57850;52.922;6.256;2022-10-22T04:46:54;98891.09;;;15.57;100.00
12468;BME280;57850;52.922;6.256;2022-10-22T04:49:21;98905.47;;;15.52;100.00
12468;BME280;57850;52.922;6.256;2022-10-22T04:51:49;98879.34;;;15.80;100.00
12468;BME280;57850;52.922;6.256;2022-10-22T04:54:15;98926.00;;;15.68;100.00
12468;BME280;57850;52.922;6.256;2022-10-22T04:56:42;98930.81;;;15.73;100.00
12468;BME280;57850;52.922;6.256;2022-10-22T04:59:10;98950.56;;;15.58;100.00
12468;BME280;57850;52.922;6.256;2022-10-22T05:01:39;98975.56;;;15.82;100.00
12468;BME280;57850;52.922;6.256;2022-10-22T05:04:10;98968.06;;;15.68;100.00
12468;BME280;57850;52.922;6.256;2022-10-22T05:06:37;98954.22;;;15.66;100.00
12468;BME280;57850;52.922;6.256;2022-10-22T05:09:06;98954.72;;;15.60;100.00
12468;BME280;57850;52.922;6.256;2022-10-22T05:11:35;98943.09;;;15.53;100.00
12468;BME280;57850;52.922;6.256;2022-10-22T05:14:03;98944.44;;;15.47;100.00
12468;BME280;57850;52.922;6.256;2022-10-22T05:16:31;98935.81;;;15.76;100.00
12468;BME280;57850;52.922;6.256;2022-10-22T05:18:59;98946.22;;;15.47;100.00
12468;BME280;57850;52.922;6.256;2022-10-22T05:21:26;98926.53;;;15.62;100.00
12468;BME280;57850;52.922;6.256;2022-10-22T05:23:54;98923.06;;;15.62;100.00
12468;BME280;57850;52.922;6.256;2022-10-22T05:26:22;98945.19;;;15.59;100.00
12468;BME280;57850;52.922;6.256;2022-10-22T05:28:49;98928.72;;;15.57;100.00
12468;BME280;57850;52.922;6.256;2022-10-22T05:31:16;98940.78;;;15.39;100.00
12468;BME280;57850;52.922;6.256;2022-10-22T05:33:44;98900.91;;;15.64;100.00
12468;BME280;57850;52.922;6.256;2022-10-22T05:36:12;98889.56;;;15.64;100.00
12468;BME280;57850;52.922;6.256;2022-10-22T05:38:39;98899.97;;;15.65;100.00
12468;BME280;57850;52.922;6.256;2022-10-22T05:41:07;98895.09;;;15.61;100.00
12468;BME280;57850;52.922;6.256;2022-10-22T05:43:36;98883.78;;;15.79;100.00
12468;BME280;57850;52.922;6.256;2022-10-22T05:46:04;98903.47;;;15.45;100.00
12468;BME280;57850;52.922;6.256;2022-10-22T05:48:31;98873.22;;;15.60;100.00
12468;BME280;57850;52.922;6.256;2022-10-22T05:51:00;98888.91;;;15.71;100.00
12468;BME280;57850;52.922;6.256;2022-10-22T05:53:29;98873.41;;;15.68;100.00
12468;BME280;57850;52.922;6.256;2022-10-22T05:55:58;98905.72;;;15.49;100.00
12468;BME280;57850;52.922;6.256;2022-10-22T05:58:25;98888.09;;;15.40;100.00
12468;BME280;57850;52.922;6.256;2022-10-22T06:00:53;98860.22;;;15.59;100.00
12468;BME280;57850;52.922;6.256;2022-10-22T06:03:19;98842.69;;;15.78;100.00
12468;BME280;57850;52.922;6.256;2022-10-22T06:05:46;98897.44;;;15.54;100.00
12468;BME280;57850;52.922;6.256;2022-10-22T06:08:13;98876.03;;;15.78;100.00
12468;BME280;57850;52.922;6.256;2022-10-22T06:10:41;98913.84;;;15.96;100.00
12468;BME280;57850;52.922;6.256;2022-10-22T06:13:08;98928.81;;;15.95;100.00
12468;BME280;57850;52.922;6.256;2022-10-22T06:15:35;98959.69;;;15.93;100.00
12468;BME280;57850;52.922;6.256;2022-10-22T06:18:03;98970.06;;;16.04;100.00
12468;BME280;57850;52.922;6.256;2022-10-22T06:20:29;98952.75;;;15.92;100.00
12468;BME280;57850;52.922;6.256;2022-10-22T06:22:56;98937.41;;;16.07;100.00
12468;BME280;57850;52.922;6.256;2022-10-22T06:25:23;98984.72;;;15.88;100.00
12468;BME280;57850;52.922;6.256;2022-10-22T06:27:49;98986.78;;;15.84;100.00
12468;BME280;57850;52.922;6.256;2022-10-22T06:30:16;98984.00;;;15.86;100.00
12468;BME280;57850;52.922;6.256;2022-10-22T06:32:43;98972.28;;;15.99;100.00
12468;BME280;57850;52.922;6.256;2022-10-22T06:35:11;98985.28;;;16.01;100.00
12468;BME280;57850;52.922;6.256;2022-10-22T06:37:38;98983.22;;;15.95;100.00
12468;BME280;57850;52.922;6.256;2022-10-22T06:40:05;98988.66;;;16.13;100.00
12468;BME280;57850;52.922;6.256;2022-10-22T06:42:32;99034.31;;;16.02;100.00
12468;BME280;57850;52.922;6.256;2022-10-22T06:44:58;98993.63;;;16.06;100.00
12468;BME280;57850;52.922;6.256;2022-10-22T06:47:25;98992.66;;;16.17;100.00
12468;BME280;57850;52.922;6.256;2022-10-22T06:49:51;99013.81;;;15.96;100.00
12468;BME280;57850;52.922;6.256;2022-10-22T06:52:19;98987.69;;;16.14;100.00
12468;BME280;57850;52.922;6.256;2022-10-22T06:54:46;98998.78;;;16.27;100.00
12468;BME280;57850;52.922;6.256;2022-10-22T06:57:13;99030.63;;;16.14;100.00
12468;BME280;57850;52.922;6.256;2022-10-22T06:59:40;99022.59;;;16.16;100.00
12468;BME280;57850;52.922;6.256;2022-10-22T07:02:07;98976.34;;;16.32;100.00
12468;BME280;57850;52.922;6.256;2022-10-22T07:04:35;98990.19;;;16.25;100.00
12468;BME280;57850;52.922;6.256;2022-10-22T07:07:01;99024.44;;;16.34;100.00
12468;BME280;57850;52.922;6.256;2022-10-22T07:09:29;99061.56;;;16.31;100.00
12468;BME280;57850;52.922;6.256;2022-10-22T07:11:55;99052.47;;;16.54;100.00
12468;BME280;57850;52.922;6.256;2022-10-22T07:14:22;99061.41;;;16.33;100.00
12468;BME280;57850;52.922;6.256;2022-10-22T07:16:48;99027.34;;;16.41;100.00
12468;BME280;57850;52.922;6.256;2022-10-22T07:19:15;99046.09;;;16.67;100.00
12468;BME280;57850;52.922;6.256;2022-10-22T07:21:41;99073.41;;;16.66;100.00
12468;BME280;57850;52.922;6.256;2022-10-22T07:24:08;99103.63;;;16.62;100.00
12468;BME280;57850;52.922;6.256;2022-10-22T07:26:36;99103.53;;;16.42;100.00
12468;BME280;57850;52.922;6.256;2022-10-22T07:29:03;99063.00;;;16.64;100.00
12468;BME280;57850;52.922;6.256;2022-10-22T07:31:30;99068.16;;;16.75;100.00
12468;BME280;57850;52.922;6.256;2022-10-22T07:33:56;99107.75;;;16.54;100.00
12468;BME280;57850;52.922;6.256;2022-10-22T07:36:23;99093.88;;;16.52;100.00
12468;BME280;57850;52.922;6.256;2022-10-22T07:38:53;99090.03;;;16.56;100.00
12468;BME280;57850;52.922;6.256;2022-10-22T07:41:20;99120.06;;;16.44;100.00
12468;BME280;57850;52.922;6.256;2022-10-22T07:43:49;99135.09;;;16.63;100.00
12468;BME280;57850;52.922;6.256;2022-10-22T07:46:15;99076.63;;;16.69;100.00
12468;BME280;57850;52.922;6.256;2022-10-22T07:48:42;99125.97;;;16.77;100.00
12468;BME280;57850;52.922;6.256;2022-10-22T07:51:08;99134.22;;;16.53;100.00
12468;BME280;57850;52.922;6.256;2022-10-22T07:53:35;99144.97;;;16.80;100.00
12468;BME280;57850;52.922;6.256;2022-10-22T07:56:02;99188.16;;;16.58;100.00
12468;BME280;57850;52.922;6.256;2022-10-22T07:58:29;99167.25;;;16.76;100.00
12468;BME280;57850;52.922;6.256;2022-10-22T08:00:58;99185.59;;;16.78;100.00
12468;BME280;57850;52.922;6.256;2022-10-22T08:03:25;99194.81;;;17.22;100.00
12468;BME280;57850;52.922;6.256;2022-10-22T08:05:53;99297.47;;;17.23;100.00
12468;BME280;57850;52.922;6.256;2022-10-22T08:08:20;99347.78;;;17.50;100.00
12468;BME280;57850;52.922;6.256;2022-10-22T08:10:49;99453.78;;;17.35;100.00
12468;BME280;57850;52.922;6.256;2022-10-22T08:13:16;99453.56;;;17.27;100.00
12468;BME280;57850;52.922;6.256;2022-10-22T08:15:44;99440.63;;;17.84;100.00
12468;BME280;57850;52.922;6.256;2022-10-22T08:18:12;99548.69;;;18.26;100.00
12468;BME280;57850;52.922;6.256;2022-10-22T08:20:39;99679.66;;;18.78;100.00
12468;BME280;57850;52.922;6.256;2022-10-22T08:23:06;99873.88;;;18.83;100.00
12468;BME280;57850;52.922;6.256;2022-10-22T08:25:32;99982.25;;;18.83;100.00
12468;BME280;57850;52.922;6.256;2022-10-22T08:27:59;99990.84;;;18.76;100.00
12468;BME280;57850;52.922;6.256;2022-10-22T08:30:25;99957.69;;;19.13;100.00
12468;BME280;57850;52.922;6.256;2022-10-22T08:32:54;100033.66;;;18.90;100.00
12468;BME280;57850;52.922;6.256;2022-10-22T08:35:22;100078.44;;;20.05;100.00
12468;BME280;57850;52.922;6.256;2022-10-22T08:37:49;100199.69;;;20.52;100.00
12468;BME280;57850;52.922;6.256;2022-10-22T08:40:25;100268.19;;;20.06;100.00
12468;BME280;57850;52.922;6.256;2022-10-22T08:43:10;100365.53;;;20.66;100.00
12468;BME280;57850;52.922;6.256;2022-10-22T08:45:40;100277.09;;;20.46;100.00
12468;BME280;57850;52.922;6.256;2022-10-22T08:48:22;100310.56;;;20.06;100.00
12468;BME280;57850;52.922;6.256;2022-10-22T08:50:56;100187.13;;;19.94;100.00
12468;BME280;57850;52.922;6.256;2022-10-22T08:53:27;100251.84;;;20.01;100.00
12468;BME280;57850;52.922;6.256;2022-10-22T08:55:55;100355.56;;;20.58;100.00
12468;BME280;57850;52.922;6.256;2022-10-22T08:58:26;100269.31;;;19.51;100.00
12468;BME280;57850;52.922;6.256;2022-10-22T09:00:58;100146.50;;;19.84;100.00
12468;BME280;57850;52.922;6.256;2022-10-22T09:03:36;100262.13;;;20.36;100.00
12468;BME280;57850;52.922;6.256;2022-10-22T09:06:11;100267.69;;;20.63;100.00
12468;BME280;57850;52.922;6.256;2022-10-22T09:08:39;100492.66;;;21.29;100.00
12468;BME280;57850;52.922;6.256;2022-10-22T09:11:16;100397.78;;;20.71;100.00
12468;BME280;57850;52.922;6.256;2022-10-22T09:13:46;100349.94;;;19.78;100.00
12468;BME280;57850;52.922;6.256;2022-10-22T09:16:16;100194.25;;;19.72;100.00
12468;BME280;57850;52.922;6.256;2022-10-22T09:18:51;100158.53;;;19.88;100.00
12468;BME280;57850;52.922;6.256;2022-10-22T09:21:28;100102.78;;;19.89;100.00
12468;BME280;57850;52.922;6.256;2022-10-22T09:24:15;100121.41;;;19.78;100.00
12468;BME280;57850;52.922;6.256;2022-10-22T09:26:43;100023.47;;;19.48;100.00
12468;BME280;57850;52.922;6.256;2022-10-22T09:29:15;100051.00;;;19.24;100.00
12468;BME280;57850;52.922;6.256;2022-10-22T09:31:43;100005.81;;;19.07;100.00
12468;BME280;57850;52.922;6.256;2022-10-22T09:34:13;99940.81;;;18.84;100.00
12468;BME280;57850;52.922;6.256;2022-10-22T09:36:41;99920.97;;;18.99;100.00
12468;BME280;57850;52.922;6.256;2022-10-22T09:39:21;99902.56;;;19.18;100.00
12468;BME280;57850;52.922;6.256;2022-10-22T09:41:49;99864.81;;;19.06;100.00
12468;BME280;57850;52.922;6.256;2022-10-22T09:44:16;99920.19;;;19.08;100.00
12468;BME280;57850;52.922;6.256;2022-10-22T09:46:43;99923.78;;;18.77;100.00
12468;BME280;57850;52.922;6.256;2022-10-22T09:49:12;99876.75;;;19.01;100.00
12468;BME280;57850;52.922;6.256;2022-10-22T09:51:51;99952.50;;;19.11;100.00
12468;BME280;57850;52.922;6.256;2022-10-22T09:54:21;99926.94;;;18.70;100.00
12468;BME280;57850;52.922;6.256;2022-10-22T09:56:54;99961.22;;;19.02;100.00
12468;BME280;57850;52.922;6.256;2022-10-22T09:59:28;99953.88;;;18.64;100.00
12468;BME280;57850;52.922;6.256;2022-10-22T10:01:57;99926.53;;;18.96;100.00
12468;BME280;57850;52.922;6.256;2022-10-22T10:04:24;99988.59;;;19.43;100.00
12468;BME280;57850;52.922;6.256;2022-10-22T10:06:54;100118.66;;;20.19;100.00
12468;BME280;57850;52.922;6.256;2022-10-22T10:09:23;100175.56;;;19.74;100.00
12468;BME280;57850;52.922;6.256;2022-10-22T10:11:55;100151.38;;;19.78;100.00
12468;BME280;57850;52.922;6.256;2022-10-22T10:14:28;100144.09;;;19.39;100.00
12468;BME280;57850;52.922;6.256;2022-10-22T10:17:03;100150.50;;;19.37;100.00
12468;BME280;57850;52.922;6.256;2022-10-22T10:19:40;100132.59;;;19.40;100.00
12468;BME280;57850;52.922;6.256;2022-10-22T10:22:23;100159.03;;;19.61;100.00
12468;BME280;57850;52.922;6.256;2022-10-22T10:25:13;100168.69;;;19.41;100.00
12468;BME280;57850;52.922;6.256;2022-10-22T10:27:48;100129.06;;;19.19;100.00
12468;BME280;57850;52.922;6.256;2022-10-22T10:30:17;100147.50;;;19.09;100.00
12468;BME280;57850;52.922;6.256;2022-10-22T10:33:02;100058.19;;;19.13;100.00
12468;BME280;57850;52.922;6.256;2022-10-22T10:35:37;100037.31;;;18.99;100.00
12468;BME280;57850;52.922;6.256;2022-10-22T10:38:20;100043.28;;;19.33;100.00
12468;BME280;57850;52.922;6.256;2022-10-22T10:40:55;100026.88;;;18.97;100.00
12468;BME280;57850;52.922;6.256;2022-10-22T10:43:31;99991.31;;;19.01;100.00
12468;BME280;57850;52.922;6.256;2022-10-22T10:46:04;99903.28;;;19.20;100.00
12468;BME280;57850;52.922;6.256;2022-10-22T10:48:41;99976.72;;;19.37;100.00
12468;BME280;57850;52.922;6.256;2022-10-22T10:51:20;100027.34;;;19.23;100.00
12468;BME280;57850;52.922;6.256;2022-10-22T10:54:02;99987.06;;;19.40;100.00
12468;BME280;57850;52.922;6.256;2022-10-22T10:56:38;100073.78;;;19.37;100.00
12468;BME280;57850;52.922;6.256;2022-10-22T10:59:14;100083.50;;;19.36;100.00
12468;BME280;57850;52.922;6.256;2022-10-22T11:01:50;100068.03;;;19.11;100.00
12468;BME280;57850;52.922;6.256;2022-10-22T11:04:47;100048.88;;;19.18;100.00
12468;BME280;57850;52.922;6.256;2022-10-22T11:07:23;100065.59;;;19.19;100.00
12468;BME280;57850;52.922;6.256;2022-10-22T11:09:56;100061.56;;;19.66;100.00
12468;BME280;57850;52.922;6.256;2022-10-22T11:12:26;100109.53;;;19.52;100.00
12468;BME280;57850;52.922;6.256;2022-10-22T11:14:59;100091.16;;;19.50;100.00
12468;BME280;57850;52.922;6.256;2022-10-22T11:17:34;100092.50;;;19.65;100.00
12468;BME280;57850;52.922;6.256;2022-10-22T11:20:06;100198.81;;;19.70;100.00
12468;BME280;57850;52.922;6.256;2022-10-22T11:22:43;100231.72;;;19.89;100.00
12468;BME280;57850;52.922;6.256;2022-10-22T11:25:17;100269.88;;;20.07;100.00
12468;BME280;57850;52.922;6.256;2022-10-22T11:27:48;100273.78;;;19.71;100.00
12468;BME280;57850;52.922;6.256;2022-10-22T11:30:18;100265.13;;;19.69;100.00
12468;BME280;57850;52.922;6.256;2022-10-22T11:32:48;100211.69;;;19.54;100.00
12468;BME280;57850;52.922;6.256;2022-10-22T11:35:19;100200.50;;;19.51;100.00
12468;BME280;57850;52.922;6.256;2022-10-22T11:37:47;100203.41;;;19.68;100.00
12468;BME280;57850;52.922;6.256;2022-10-22T11:40:18;100156.63;;;19.48;100.00
12468;BME280;57850;52.922;6.256;2022-10-22T11:42:48;100160.84;;;19.40;100.00
12468;BME280;57850;52.922;6.256;2022-10-22T11:45:27;100171.94;;;19.02;100.00
12468;BME280;57850;52.922;6.256;2022-10-22T11:47:57;100121.16;;;19.08;100.00
12468;BME280;57850;52.922;6.256;2022-10-22T11:50:26;100116.53;;;19.21;100.00
12468;BME280;57850;52.922;6.256;2022-10-22T11:52:58;100108.28;;;19.14;100.00
12468;BME280;57850;52.922;6.256;2022-10-22T11:55:43;100012.38;;;18.92;100.00
12468;BME280;57850;52.922;6.256;2022-10-22T11:58:34;99952.06;;;19.06;100.00
12468;BME280;57850;52.922;6.256;2022-10-22T12:01:21;99886.66;;;18.78;100.00
12468;BME280;57850;52.922;6.256;2022-10-22T12:03:50;99829.50;;;18.87;100.00
12468;BME280;57850;52.922;6.256;2022-10-22T12:06:21;99769.25;;;18.81;100.00
12468;BME280;57850;52.922;6.256;2022-10-22T12:08:57;99711.97;;;18.91;100.00
12468;BME280;57850;52.922;6.256;2022-10-22T12:11:27;99676.91;;;18.89;100.00
12468;BME280;57850;52.922;6.256;2022-10-22T12:14:16;99667.97;;;18.90;100.00
12468;BME280;57850;52.922;6.256;2022-10-22T12:16:47;99627.34;;;18.81;100.00
12468;BME280;57850;52.922;6.256;2022-10-22T12:19:23;99612.91;;;18.76;100.00
12468;BME280;57850;52.922;6.256;2022-10-22T12:21:53;99604.00;;;19.05;100.00
12468;BME280;57850;52.922;6.256;2022-10-22T12:24:22;99643.81;;;19.13;100.00
12468;BME280;57850;52.922;6.256;2022-10-22T12:26:51;99668.03;;;19.57;100.00
12468;BME280;57850;52.922;6.256;2022-10-22T12:29:19;99790.75;;;19.85;100.00
12468;BME280;57850;52.922;6.256;2022-10-22T12:31:47;99874.91;;;19.81;100.00
12468;BME280;57850;52.922;6.256;2022-10-22T12:34:15;99902.94;;;20.70;100.00
12468;BME280;57850;52.922;6.256;2022-10-22T12:36:42;100111.91;;;21.80;100.00
12468;BME280;57850;52.922;6.256;2022-10-22T12:39:11;100292.63;;;20.91;100.00
12468;BME280;57850;52.922;6.256;2022-10-22T12:41:39;100237.97;;;20.29;100.00
12468;BME280;57850;52.922;6.256;2022-10-22T12:44:10;100213.75;;;20.83;100.00
12468;BME280;57850;52.922;6.256;2022-10-22T12:46:37;100269.16;;;21.26;100.00
12468;BME280;57850;52.922;6.256;2022-10-22T12:49:07;100423.94;;;21.76;100.00
12468;BME280;57850;52.922;6.256;2022-10-22T12:51:34;100478.41;;;21.61;100.00
12468;BME280;57850;52.922;6.256;2022-10-22T12:54:06;100517.41;;;21.30;100.00
12468;BME280;57850;52.922;6.256;2022-10-22T12:56:35;100440.13;;;20.61;100.00
12468;BME280;57850;52.922;6.256;2022-10-22T12:59:05;100321.81;;;20.40;100.00
12468;BME280;57850;52.922;6.256;2022-10-22T13:01:36;100300.50;;;20.71;100.00
12468;BME280;57850;52.922;6.256;2022-10-22T13:04:06;100371.97;;;20.73;100.00
12468;BME280;57850;52.922;6.256;2022-10-22T13:06:44;100419.84;;;20.92;100.00